Time;durP1;ratioP1;P1;durP2;ratioP2;P2;SDS_P1;SDS_P2;PMS_P1;PMS_P2;Temp;Humidity;BMP_temperature;BMP_pressure;BME280_temperature;BME280_humidity;BME280_pressure;Samples;Min_cycle;Max_cycle;Signal;HPM_P1;HPM_P2
2023/06/01 00:01:33;;;;;;;6.50;4.30;;;;;;;9.67;48.86;100311.95;131257;1254;107483;-80
2023/06/01 00:04:40;;;;;;;6.10;4.10;;;;;;;9.65;49.16;100309.80;131129;1254;107539;-79
2023/06/01 00:07:45;;;;;;;6.50;4.30;;;;;;;9.63;49.26;100306.14;131143;1257;107384;-81
2023/06/01 00:10:51;;;;;;;6.70;4.10;;;;;;;9.60;49.33;100306.01;131112;1254;107331;-78
2023/06/01 00:13:56;;;;;;;9.00;4.20;;;;;;;9.58;49.68;100301.94;131114;1265;107202;-79
2023/06/01 00:17:03;;;;;;;7.80;4.10;;;;;;;9.57;49.39;100302.09;131082;1254;107506;-81
2023/06/01 00:20:10;;;;;;;8.30;4.00;;;;;;;9.54;49.92;100300.02;131150;1254;107549;-80
2023/06/01 00:23:19;;;;;;;7.20;4.00;;;;;;;9.53;49.78;100298.91;131197;1254;107410;-79
2023/06/01 00:26:25;;;;;;;6.00;3.70;;;;;;;9.53;50.07;100297.52;131372;1254;107383;-80
2023/06/01 00:29:32;;;;;;;7.10;3.90;;;;;;;9.52;50.07;100290.66;131106;1254;106545;-80
2023/06/01 00:32:37;;;;;;;7.40;4.20;;;;;;;9.51;50.36;100290.40;131039;1256;108299;-79
2023/06/01 00:35:43;;;;;;;5.50;3.70;;;;;;;9.51;50.54;100292.17;131056;1256;107556;-80
2023/06/01 00:38:48;;;;;;;7.60;4.10;;;;;;;9.51;50.58;100288.46;131040;1251;105957;-80
2023/06/01 00:41:54;;;;;;;9.50;3.80;;;;;;;9.50;50.69;100289.08;131185;1254;107502;-80
2023/06/01 00:45:00;;;;;;;7.70;3.80;;;;;;;9.48;50.83;100286.19;131059;1255;107498;-80
2023/06/01 00:48:06;;;;;;;5.60;3.50;;;;;;;9.46;50.75;100285.90;131047;1254;107566;-80
2023/06/01 00:51:14;;;;;;;6.00;3.70;;;;;;;9.43;50.80;100285.37;131071;1251;107253;-81
2023/06/01 00:54:21;;;;;;;5.10;3.20;;;;;;;9.42;51.03;100283.39;131058;1254;107452;-80
2023/06/01 00:57:27;;;;;;;6.50;3.60;;;;;;;9.41;51.15;100280.13;131014;1257;107571;-80
2023/06/01 01:00:32;;;;;;;6.90;3.60;;;;;;;9.40;51.27;100277.86;131061;1261;107500;-80
2023/06/01 01:03:38;;;;;;;5.90;3.60;;;;;;;9.41;51.51;100277.63;131206;1254;107674;-81
2023/06/01 01:07:00;;;;;;;6.60;4.10;;;;;;;9.43;51.58;100275.66;130932;1254;107344;-80
2023/06/01 01:10:14;;;;;;;5.10;3.40;;;;;;;9.41;51.77;100275.45;130999;1256;107633;-80
2023/06/01 01:13:24;;;;;;;7.20;3.50;;;;;;;9.41;51.83;100273.54;130987;1257;107902;-80
2023/06/01 01:16:33;;;;;;;7.30;3.80;;;;;;;9.41;51.86;100270.65;131138;1251;107530;-80
2023/06/01 01:19:54;;;;;;;6.40;3.90;;;;;;;9.41;51.87;100266.02;131134;1254;107424;-80
2023/06/01 01:23:16;;;;;;;6.50;3.80;;;;;;;9.41;52.13;100260.36;131073;1253;107106;-80
2023/06/01 01:26:43;;;;;;;5.60;3.40;;;;;;;9.41;52.02;100258.99;131159;1255;107527;-79
2023/06/01 01:29:49;;;;;;;5.50;3.50;;;;;;;9.38;52.32;100259.09;130764;1267;107510;-80
2023/06/01 01:32:58;;;;;;;6.00;3.80;;;;;;;9.37;52.48;100255.26;130965;1257;107655;-80
2023/06/01 01:36:06;;;;;;;6.10;3.80;;;;;;;9.37;52.52;100250.86;131300;1254;107149;-80
2023/06/01 01:39:12;;;;;;;5.10;3.40;;;;;;;9.33;52.59;100250.66;130886;1258;107582;-80
2023/06/01 01:42:17;;;;;;;6.90;4.10;;;;;;;9.31;52.69;100249.95;131193;1257;107522;-80
2023/06/01 01:45:23;;;;;;;6.50;3.90;;;;;;;9.31;52.71;100248.63;131037;1258;107560;-80
2023/06/01 01:48:34;;;;;;;5.30;3.50;;;;;;;9.28;52.92;100248.84;130928;1254;107461;-81
2023/06/01 01:51:48;;;;;;;7.10;3.80;;;;;;;9.29;53.08;100242.36;131121;1255;107520;-80
2023/06/01 01:54:56;;;;;;;7.80;3.80;;;;;;;9.29;53.13;100242.74;130909;1253;107266;-80
2023/06/01 01:58:04;;;;;;;5.40;3.60;;;;;;;9.28;53.15;100240.55;130995;1251;106783;-80
2023/06/01 02:01:11;;;;;;;6.50;3.60;;;;;;;9.26;53.25;100234.15;130815;1257;107568;-80
2023/06/01 02:04:16;;;;;;;7.70;3.70;;;;;;;9.24;53.43;100236.29;131110;1251;107403;-80
2023/06/01 02:07:22;;;;;;;5.20;3.50;;;;;;;9.21;53.42;100235.35;130929;1253;107539;-80
2023/06/01 02:10:27;;;;;;;6.80;3.70;;;;;;;9.17;53.36;100230.14;131034;1256;107504;-80
2023/06/01 02:13:33;;;;;;;6.70;3.80;;;;;;;9.16;53.82;100232.08;130819;1257;107887;-79
2023/06/01 02:16:39;;;;;;;5.00;3.20;;;;;;;9.12;53.71;100228.50;131052;1255;107532;-78
2023/06/01 02:19:45;;;;;;;4.80;3.40;;;;;;;9.08;53.78;100232.77;130913;1252;107517;-78
2023/06/01 02:22:50;;;;;;;5.50;3.60;;;;;;;9.09;53.90;100234.17;130820;1257;107466;-80
2023/06/01 02:25:56;;;;;;;6.80;3.50;;;;;;;9.07;53.86;100232.20;131147;1256;107325;-78
2023/06/01 02:29:04;;;;;;;6.80;3.60;;;;;;;9.04;54.09;100231.02;130972;1251;107546;-78
2023/06/01 02:32:11;;;;;;;6.00;3.70;;;;;;;9.04;54.08;100228.18;131120;1254;107546;-79
2023/06/01 02:35:17;;;;;;;5.30;3.60;;;;;;;9.06;54.23;100221.33;130909;1255;107452;-76
2023/06/01 02:38:22;;;;;;;7.80;4.20;;;;;;;9.07;54.26;100219.75;130953;1263;107382;-77
2023/06/01 02:41:28;;;;;;;5.60;3.80;;;;;;;9.09;54.50;100219.63;130931;1267;105704;-77
2023/06/01 02:44:33;;;;;;;6.10;4.10;;;;;;;9.09;54.45;100218.34;130998;1254;107324;-75
2023/06/01 02:47:39;;;;;;;7.10;4.00;;;;;;;9.12;54.69;100221.11;130913;1250;108116;-76
2023/06/01 02:50:44;;;;;;;7.60;4.00;;;;;;;9.14;54.86;100215.77;130918;1256;107486;-78
2023/06/01 02:53:50;;;;;;;6.00;3.50;;;;;;;9.17;54.93;100213.19;130972;1251;107363;-77
2023/06/01 02:56:56;;;;;;;7.10;4.10;;;;;;;9.20;54.96;100214.58;130838;1254;107521;-77
2023/06/01 03:00:21;;;;;;;8.50;4.30;;;;;;;9.26;55.13;100215.29;130763;1257;107438;-76
2023/06/01 03:03:28;;;;;;;7.40;4.60;;;;;;;9.30;55.14;100212.59;130693;1259;107363;-76
2023/06/01 03:06:37;;;;;;;8.20;4.00;;;;;;;9.35;55.10;100211.77;130982;1254;106548;-79
2023/06/01 03:09:42;;;;;;;7.60;3.40;;;;;;;9.42;55.27;100207.55;130883;1251;105769;-78
2023/06/01 03:13:01;;;;;;;8.00;4.20;;;;;;;9.50;55.44;100209.00;131194;1256;107530;-77
2023/06/01 03:16:07;;;;;;;5.90;3.40;;;;;;;9.60;55.48;100207.80;130823;1258;108692;-76
2023/06/01 03:19:13;;;;;;;5.90;3.60;;;;;;;9.80;55.31;100206.27;130836;1257;107364;-76
2023/06/01 03:22:19;;;;;;;6.10;3.40;;;;;;;10.00;55.89;100205.89;131077;1256;106420;-75
2023/06/01 03:25:26;;;;;;;6.80;3.20;;;;;;;10.21;55.49;100202.06;131000;1254;106403;-77
2023/06/01 03:28:31;;;;;;;6.00;3.40;;;;;;;10.41;55.63;100202.61;131193;1254;107630;-78
2023/06/01 03:31:37;;;;;;;14.20;3.80;;;;;;;10.70;55.34;100202.70;130867;1254;107846;-77
2023/06/01 03:34:42;;;;;;;6.60;3.60;;;;;;;11.02;55.47;100203.53;130918;1257;106480;-76
2023/06/01 03:37:48;;;;;;;6.90;3.80;;;;;;;11.32;55.51;100200.10;130940;1254;106582;-76
2023/06/01 03:40:56;;;;;;;5.40;3.50;;;;;;;11.64;55.62;100197.33;131051;1254;107503;-76
2023/06/01 03:44:02;;;;;;;12.10;5.10;;;;;;;11.96;55.53;100191.17;130965;1257;106667;-76
2023/06/01 03:47:08;;;;;;;6.20;3.90;;;;;;;12.30;55.51;100190.89;130998;1252;107702;-76
2023/06/01 03:50:14;;;;;;;5.80;3.30;;;;;;;12.58;55.57;100187.83;130937;1250;105820;-76
2023/06/01 03:53:20;;;;;;;4.60;3.40;;;;;;;12.83;55.51;100185.80;130973;1253;107523;-76
2023/06/01 03:56:25;;;;;;;7.10;3.10;;;;;;;13.11;55.54;100184.48;131041;1251;107209;-79
2023/06/01 03:59:33;;;;;;;4.50;3.40;;;;;;;13.41;55.60;100179.22;130842;1257;107428;-80
2023/06/01 04:02:40;;;;;;;3.80;3.00;;;;;;;13.69;55.67;100180.30;131084;1257;107513;-79
2023/06/01 04:05:49;;;;;;;3.60;2.70;;;;;;;13.94;55.68;100176.91;131088;1256;107424;-79
2023/06/01 04:08:58;;;;;;;4.80;3.00;;;;;;;14.19;55.62;100174.91;130919;1258;107511;-80
2023/06/01 04:12:06;;;;;;;3.80;2.90;;;;;;;14.44;55.52;100172.92;131263;1256;107456;-79
2023/06/01 04:15:14;;;;;;;5.00;2.80;;;;;;;14.72;55.65;100170.39;131085;1256;107370;-79
2023/06/01 04:18:20;;;;;;;4.70;3.00;;;;;;;14.99;55.71;100170.52;131118;1256;107408;-79
2023/06/01 04:21:33;;;;;;;4.90;3.00;;;;;;;15.26;55.54;100166.19;131030;1254;107398;-79
2023/06/01 04:24:39;;;;;;;4.70;2.90;;;;;;;15.53;55.75;100162.80;130981;1254;107349;-79
2023/06/01 04:27:47;;;;;;;4.30;2.70;;;;;;;15.79;55.64;100156.61;131153;1253;107529;-79
2023/06/01 04:30:54;;;;;;;4.20;2.90;;;;;;;16.03;55.68;100154.81;130977;1256;107386;-79
2023/06/01 04:34:01;;;;;;;4.90;2.90;;;;;;;16.28;55.60;100153.27;131068;1254;106363;-81
2023/06/01 04:37:10;;;;;;;3.80;2.90;;;;;;;16.53;55.42;100151.00;131151;1251;107408;-80
2023/06/01 04:40:16;;;;;;;5.20;2.80;;;;;;;16.78;55.22;100144.37;130938;1259;107419;-79
2023/06/01 04:43:23;;;;;;;4.80;2.80;;;;;;;17.02;54.99;100144.34;131052;1254;107229;-79
2023/06/01 04:46:29;;;;;;;4.40;2.60;;;;;;;17.26;54.67;100140.33;131105;1254;106491;-79
2023/06/01 04:49:41;;;;;;;6.10;2.80;;;;;;;17.49;54.10;100132.45;130994;1256;107498;-79
2023/06/01 04:52:48;;;;;;;4.60;2.60;;;;;;;17.71;53.94;100131.95;130819;1254;107494;-79
2023/06/01 04:55:56;;;;;;;3.60;2.90;;;;;;;17.92;53.57;100130.17;131010;1251;107520;-79
2023/06/01 04:59:05;;;;;;;4.50;3.30;;;;;;;18.12;53.35;100129.64;131112;1255;107850;-79
2023/06/01 05:02:11;;;;;;;8.00;3.20;;;;;;;18.29;52.94;100124.29;131024;1254;107340;-79
2023/06/01 05:05:18;;;;;;;3.80;2.80;;;;;;;18.47;52.91;100126.38;130570;1254;268178;-79
2023/06/01 05:08:25;;;;;;;4.40;2.70;;;;;;;18.65;52.70;100119.05;131032;1254;107531;-79
2023/06/01 05:11:30;;;;;;;4.80;2.70;;;;;;;18.82;51.91;100119.16;131041;1251;106519;-79
2023/06/01 05:14:37;;;;;;;4.20;2.70;;;;;;;18.95;51.85;100117.91;131207;1251;107857;-79
2023/06/01 05:17:44;;;;;;;5.10;3.00;;;;;;;19.09;51.75;100111.76;131011;1256;107480;-79
2023/06/01 05:20:53;;;;;;;5.50;2.80;;;;;;;19.23;51.51;100109.92;131100;1256;107337;-79
2023/06/01 05:23:59;;;;;;;4.50;2.70;;;;;;;19.35;51.15;100105.73;130932;1257;107406;-79
2023/06/01 05:27:06;;;;;;;6.20;2.50;;;;;;;19.45;50.87;100103.55;130842;1258;107598;-79
2023/06/01 05:30:14;;;;;;;5.60;2.80;;;;;;;19.56;50.86;100101.38;131085;1252;107457;-79
2023/06/01 05:33:21;;;;;;;4.30;2.50;;;;;;;19.70;50.27;100098.66;131144;1256;107510;-79
2023/06/01 05:36:27;;;;;;;8.00;2.70;;;;;;;19.76;49.71;100094.73;130888;1250;107528;-79
2023/06/01 05:39:33;;;;;;;6.70;2.60;;;;;;;19.85;49.05;100095.16;131156;1256;107531;-79
2023/06/01 05:42:39;;;;;;;5.40;2.60;;;;;;;19.88;49.10;100092.70;131041;1256;107366;-79
2023/06/01 05:45:45;;;;;;;5.80;2.50;;;;;;;19.96;49.32;100085.92;130952;1253;107495;-79
2023/06/01 05:48:50;;;;;;;8.40;2.70;;;;;;;20.03;48.83;100092.17;131025;1254;107597;-79
2023/06/01 05:51:56;;;;;;;4.10;2.30;;;;;;;20.08;48.76;100089.10;130921;1254;107512;-79
2023/06/01 05:55:02;;;;;;;37.50;5.80;;;;;;;20.08;47.80;100090.60;130896;1254;107447;-79
2023/06/01 05:58:07;;;;;;;5.90;2.30;;;;;;;20.08;47.14;100088.05;130968;1250;107593;-81
2023/06/01 06:01:13;;;;;;;3.60;2.40;;;;;;;20.10;47.67;100085.38;131102;1254;107373;-79
2023/06/01 06:04:19;;;;;;;5.10;2.50;;;;;;;20.14;47.65;100083.96;131035;1255;107618;-79
2023/06/01 06:07:24;;;;;;;7.50;3.50;;;;;;;20.18;47.64;100083.69;131085;1254;106923;-79
2023/06/01 06:10:30;;;;;;;4.50;2.30;;;;;;;20.21;47.03;100080.58;131223;1254;107510;-79
2023/06/01 06:13:35;;;;;;;3.60;2.20;;;;;;;20.16;44.48;100087.84;131140;1254;107465;-79
2023/06/01 06:16:42;;;;;;;5.50;2.20;;;;;;;20.02;43.63;100085.14;131029;1254;107531;-79
2023/06/01 06:19:49;;;;;;;5.00;2.40;;;;;;;19.85;43.23;100090.59;131147;1258;107219;-79
2023/06/01 06:22:55;;;;;;;4.30;2.30;;;;;;;19.73;44.23;100089.03;131269;1256;107529;-79
2023/06/01 06:26:00;;;;;;;4.10;2.20;;;;;;;19.73;44.84;100090.08;130918;1255;107572;-80
2023/06/01 06:29:06;;;;;;;3.00;2.00;;;;;;;19.77;44.27;100087.30;130983;1256;107573;-79
2023/06/01 06:32:12;;;;;;;5.00;2.50;;;;;;;19.74;43.78;100083.98;131015;1253;108123;-80
2023/06/01 06:35:17;;;;;;;3.20;2.20;;;;;;;19.73;43.42;100089.45;131098;1251;107601;-79
2023/06/01 06:38:23;;;;;;;4.60;2.10;;;;;;;19.75;43.76;100088.19;130958;1254;106667;-80
2023/06/01 06:41:28;;;;;;;5.80;2.20;;;;;;;19.75;43.36;100088.77;131113;1252;107595;-79
2023/06/01 06:44:34;;;;;;;4.00;2.30;;;;;;;19.76;42.97;100083.19;131046;1255;107540;-80
2023/06/01 06:47:41;;;;;;;4.50;2.10;;;;;;;19.78;43.51;100077.66;130963;1255;107529;-79
2023/06/01 06:50:47;;;;;;;4.60;2.20;;;;;;;19.87;43.90;100076.15;131078;1250;107268;-79
2023/06/01 06:53:52;;;;;;;2.80;2.00;;;;;;;19.99;44.19;100078.33;131018;1254;107484;-79
2023/06/01 06:56:58;;;;;;;2.80;2.10;;;;;;;20.08;42.82;100079.98;131086;1251;107327;-79
2023/06/01 07:00:05;;;;;;;2.50;2.00;;;;;;;20.12;42.34;100075.23;130947;1254;107530;-79
2023/06/01 07:03:10;;;;;;;3.70;2.30;;;;;;;20.15;42.36;100076.27;131425;1250;105629;-79
2023/06/01 07:06:16;;;;;;;3.60;2.00;;;;;;;20.23;43.12;100071.64;131244;1254;107316;-79
2023/06/01 07:09:22;;;;;;;3.40;2.00;;;;;;;20.36;42.86;100073.27;131240;1254;107544;-79
2023/06/01 07:12:27;;;;;;;5.20;1.90;;;;;;;20.41;41.20;100070.83;131185;1256;107583;-79
2023/06/01 07:15:33;;;;;;;3.30;1.90;;;;;;;20.49;42.09;100068.91;130956;1254;105702;-79
2023/06/01 07:18:38;;;;;;;3.50;2.00;;;;;;;20.53;40.16;100072.17;130982;1254;107432;-79
2023/06/01 07:21:44;;;;;;;3.90;2.10;;;;;;;20.54;40.95;100069.95;131095;1253;107341;-80
2023/06/01 07:24:49;;;;;;;3.30;2.00;;;;;;;20.63;41.38;100065.35;131117;1254;107515;-79
2023/06/01 07:27:56;;;;;;;3.90;1.70;;;;;;;20.71;41.32;100064.80;131163;1252;107509;-80
2023/06/01 07:31:01;;;;;;;4.60;1.50;;;;;;;20.82;41.56;100064.08;131023;1254;107681;-80
2023/06/01 07:34:07;;;;;;;5.40;2.10;;;;;;;20.89;41.06;100060.83;131124;1256;107508;-79
2023/06/01 07:37:12;;;;;;;3.80;2.00;;;;;;;20.95;40.22;100058.58;131136;1250;107254;-80
2023/06/01 07:40:18;;;;;;;3.80;2.00;;;;;;;21.01;40.23;100055.75;131275;1253;108145;-80
2023/06/01 07:43:24;;;;;;;5.50;2.30;;;;;;;21.03;38.89;100054.02;131338;1251;107551;-79
2023/06/01 07:46:29;;;;;;;4.90;2.30;;;;;;;21.03;39.82;100051.91;131217;1254;107517;-80
2023/06/01 07:49:36;;;;;;;175.20;20.70;;;;;;;21.11;40.80;100046.54;131150;1254;107540;-79
2023/06/01 07:52:42;;;;;;;4.30;2.40;;;;;;;21.22;40.06;100049.82;131080;1254;107251;-80
2023/06/01 07:55:49;;;;;;;6.60;2.10;;;;;;;21.29;39.75;100041.89;131097;1251;108127;-79
2023/06/01 07:58:55;;;;;;;3.00;2.00;;;;;;;21.35;39.84;100043.96;131139;1256;107683;-79
2023/06/01 08:02:00;;;;;;;7.80;2.20;;;;;;;21.36;39.10;100032.91;131134;1255;107577;-79
2023/06/01 08:05:08;;;;;;;3.00;2.00;;;;;;;21.46;39.68;100041.13;131071;1254;107549;-80
2023/06/01 08:08:14;;;;;;;2.70;1.70;;;;;;;21.55;38.83;100037.63;131002;1254;107507;-82
2023/06/01 08:11:21;;;;;;;5.40;2.00;;;;;;;21.60;39.24;100038.08;130928;1255;107407;-80
2023/06/01 08:14:27;;;;;;;7.10;1.80;;;;;;;21.69;38.86;100039.30;131227;1250;107236;-80
2023/06/01 08:17:33;;;;;;;3.00;1.80;;;;;;;21.70;37.35;100034.38;131163;1254;107807;-80
2023/06/01 08:20:39;;;;;;;2.50;1.50;;;;;;;21.76;38.92;100030.69;131005;1250;107257;-79
2023/06/01 08:23:45;;;;;;;2.10;1.60;;;;;;;21.87;38.62;100023.80;131166;1254;107358;-79
2023/06/01 08:26:50;;;;;;;15.30;1.90;;;;;;;21.98;37.60;100028.29;131269;1250;107184;-79
2023/06/01 08:29:56;;;;;;;2.30;1.50;;;;;;;22.03;37.87;100027.30;131079;1255;107256;-79
2023/06/01 08:33:02;;;;;;;2.40;1.60;;;;;;;22.10;38.40;100023.16;131248;1252;107514;-80
2023/06/01 08:36:09;;;;;;;4.70;1.60;;;;;;;22.16;37.91;100014.99;131071;1254;107360;-79
2023/06/01 08:39:25;;;;;;;3.00;1.50;;;;;;;22.20;37.16;100015.52;131203;1256;107252;-79
2023/06/01 08:42:36;;;;;;;3.00;1.50;;;;;;;22.25;36.46;100018.54;131164;1256;107528;-79
2023/06/01 08:45:44;;;;;;;2.80;1.60;;;;;;;22.28;35.53;100013.89;130985;1256;107494;-79
2023/06/01 08:48:53;;;;;;;2.30;1.40;;;;;;;22.29;35.82;100008.58;131146;1256;107641;-79
2023/06/01 08:52:00;;;;;;;3.80;1.30;;;;;;;22.29;35.46;100001.89;131074;1253;107499;-79
2023/06/01 08:55:07;;;;;;;3.50;1.40;;;;;;;22.30;35.46;99999.86;131251;1250;107567;-78
2023/06/01 08:58:13;;;;;;;5.00;1.40;;;;;;;22.39;36.02;100002.34;131204;1256;107575;-78
2023/06/01 09:01:22;;;;;;;3.30;1.40;;;;;;;22.39;34.71;99997.01;130987;1256;105821;-79
2023/06/01 09:04:30;;;;;;;3.60;1.50;;;;;;;22.43;35.81;99992.69;131128;1255;107672;-79
2023/06/01 09:07:36;;;;;;;2.20;1.30;;;;;;;22.52;36.29;99986.90;131105;1256;107406;-79
2023/06/01 09:10:41;;;;;;;2.60;1.50;;;;;;;22.63;36.52;99985.36;131039;1253;107324;-79
2023/06/01 09:13:47;;;;;;;5.60;1.90;;;;;;;22.74;37.06;99978.36;130974;1254;107284;-79
2023/06/01 09:16:53;;;;;;;2.80;1.70;;;;;;;22.86;36.74;99972.56;131014;1255;107547;-79
2023/06/01 09:19:58;;;;;;;13.00;3.00;;;;;;;22.92;36.61;99974.90;131147;1252;105665;-79
2023/06/01 09:23:04;;;;;;;3.30;1.50;;;;;;;22.98;36.43;99971.70;130949;1254;107536;-80
2023/06/01 09:26:11;;;;;;;3.50;1.60;;;;;;;23.03;36.24;99974.13;131052;1254;107395;-79
2023/06/01 09:29:17;;;;;;;2.80;1.70;;;;;;;23.07;34.86;99974.73;131226;1254;106231;-79
2023/06/01 09:32:22;;;;;;;4.10;1.70;;;;;;;23.07;35.56;99974.27;131151;1256;108064;-79
2023/06/01 09:35:42;;;;;;;4.10;1.70;;;;;;;23.11;36.37;99969.82;131226;1250;107280;-81
2023/06/01 09:38:48;;;;;;;3.40;1.60;;;;;;;23.16;35.92;99964.36;131344;1254;107498;-81
2023/06/01 09:41:55;;;;;;;3.00;1.70;;;;;;;23.20;35.92;99955.88;131105;1256;107531;-81
2023/06/01 09:45:17;;;;;;;2.10;1.40;;;;;;;23.23;35.16;99958.13;131245;1253;108096;-80
2023/06/01 09:48:22;;;;;;;5.40;2.10;;;;;;;23.31;35.32;99962.13;131196;1263;107546;-80
2023/06/01 09:51:31;;;;;;;2.90;1.50;;;;;;;23.35;35.36;99959.92;131031;1253;109330;-80
2023/06/01 09:54:39;;;;;;;2.90;1.70;;;;;;;23.38;35.14;99954.41;131315;1253;107505;-80
2023/06/01 09:57:45;;;;;;;3.90;1.80;;;;;;;23.43;35.12;99951.79;131311;1256;106543;-80
2023/06/01 10:00:51;;;;;;;1.90;1.60;;;;;;;23.48;35.45;99945.45;131113;1256;107440;-80
2023/06/01 10:03:59;;;;;;;5.30;2.20;;;;;;;23.57;35.99;99942.44;131179;1250;106269;-80
2023/06/01 10:07:10;;;;;;;5.00;1.90;;;;;;;23.66;36.05;99938.88;131059;1255;107550;-80
2023/06/01 10:10:16;;;;;;;4.30;1.90;;;;;;;23.71;35.76;99931.66;131513;1253;107394;-80
2023/06/01 10:13:24;;;;;;;4.40;2.00;;;;;;;23.73;34.48;99931.85;131148;1265;106717;-80
2023/06/01 10:16:30;;;;;;;3.30;2.00;;;;;;;23.71;35.32;99929.92;131106;1266;107069;-80
2023/06/01 10:19:38;;;;;;;3.10;1.90;;;;;;;23.82;35.47;99930.13;131112;1254;107722;-80
2023/06/01 10:22:45;;;;;;;3.80;2.00;;;;;;;23.89;35.31;99929.20;131229;1255;107533;-80
2023/06/01 10:25:53;;;;;;;6.80;2.00;;;;;;;23.91;34.67;99921.83;131145;1256;107505;-80
2023/06/01 10:29:01;;;;;;;4.50;2.10;;;;;;;23.88;34.57;99915.77;131118;1256;107534;-81
2023/06/01 10:32:44;;;;;;;4.30;2.10;;;;;;;23.85;33.95;99921.06;130930;1253;107778;-81
2023/06/01 10:35:57;;;;;;;5.60;2.40;;;;;;;23.85;33.97;99916.66;131106;1256;107482;-80
2023/06/01 10:39:24;;;;;;;3.70;1.80;;;;;;;23.88;34.68;99918.50;131077;1256;107000;-80
2023/06/01 10:42:40;;;;;;;3.00;2.00;;;;;;;23.98;34.74;99907.91;131193;1256;106859;-82
2023/06/01 10:45:45;;;;;;;4.00;1.80;;;;;;;24.07;35.31;99905.80;131229;1251;107510;-82
2023/06/01 10:48:56;;;;;;;2.70;1.60;;;;;;;24.16;34.07;99905.00;131078;1257;107961;-81
2023/06/01 10:52:28;;;;;;;3.20;1.90;;;;;;;24.19;34.33;99900.04;131069;1256;107456;-82
2023/06/01 10:55:34;;;;;;;4.40;1.70;;;;;;;24.25;34.82;99897.70;131103;1256;107554;-81
2023/06/01 10:58:40;;;;;;;3.30;2.00;;;;;;;24.32;34.57;99898.29;131237;1254;107617;-81
2023/06/01 11:01:47;;;;;;;5.90;1.90;;;;;;;24.38;34.84;99893.84;131218;1256;108098;-79
2023/06/01 11:04:52;;;;;;;5.20;1.80;;;;;;;24.41;33.94;99896.77;131384;1256;106808;-79
2023/06/01 11:07:58;;;;;;;4.30;2.10;;;;;;;24.34;32.72;99886.09;131039;1256;107283;-79
2023/06/01 11:11:05;;;;;;;5.70;2.10;;;;;;;24.31;33.08;99884.65;131006;1256;107410;-79
2023/06/01 11:14:13;;;;;;;4.10;1.80;;;;;;;24.37;33.91;99885.41;131134;1256;108036;-82
2023/06/01 11:17:32;;;;;;;24.90;3.20;;;;;;;24.40;32.60;99876.63;131048;1253;108685;-79
2023/06/01 11:20:42;;;;;;;3.10;1.70;;;;;;;24.45;33.40;99871.07;131056;1255;107487;-79
2023/06/01 11:23:48;;;;;;;3.90;2.00;;;;;;;24.55;34.17;99866.96;131047;1253;107245;-79
2023/06/01 11:26:53;;;;;;;3.30;2.10;;;;;;;24.65;33.63;99861.69;131093;1255;107506;-79
2023/06/01 11:29:59;;;;;;;3.00;2.20;;;;;;;24.65;33.26;99853.99;131255;1256;107374;-80
2023/06/01 11:33:07;;;;;;;2.60;1.90;;;;;;;24.67;33.63;99851.23;131071;1256;107740;-79
2023/06/01 11:36:14;;;;;;;3.50;2.00;;;;;;;24.70;33.30;99852.79;131035;1264;106497;-80
2023/06/01 11:39:22;;;;;;;4.80;2.30;;;;;;;24.73;32.54;99851.89;131115;1256;107577;-79
2023/06/01 11:42:37;;;;;;;4.30;2.40;;;;;;;24.75;33.06;99849.63;131234;1256;105629;-79
2023/06/01 11:45:42;;;;;;;2.40;2.00;;;;;;;24.81;33.44;99847.28;131157;1253;107526;-79
2023/06/01 11:49:01;;;;;;;3.50;2.30;;;;;;;24.86;32.71;99840.23;131245;1251;107294;-79
2023/06/01 11:52:11;;;;;;;3.30;2.10;;;;;;;24.92;32.93;99836.58;131206;1255;108344;-79
2023/06/01 11:55:25;;;;;;;3.40;2.10;;;;;;;24.99;32.47;99838.34;131260;1253;107155;-80
2023/06/01 11:58:33;;;;;;;5.20;2.30;;;;;;;25.03;32.13;99835.97;130911;1256;107465;-80
2023/06/01 12:01:44;;;;;;;5.10;2.00;;;;;;;25.04;31.55;99830.42;130996;1256;107516;-79
2023/06/01 12:05:09;;;;;;;3.80;2.10;;;;;;;25.07;32.16;99835.64;130962;1255;108912;-82
2023/06/01 12:08:23;;;;;;;10.60;3.10;;;;;;;25.10;31.94;99830.96;131136;1256;107712;-79
2023/06/01 12:11:34;;;;;;;5.00;2.10;;;;;;;25.12;31.93;99832.14;130941;1258;107599;-79
2023/06/01 12:14:55;;;;;;;23.80;4.90;;;;;;;25.18;32.05;99823.98;130980;1256;107569;-79
2023/06/01 12:18:13;;;;;;;3.30;2.20;;;;;;;25.22;31.35;99815.67;130613;1253;106971;-80
2023/06/01 12:21:19;;;;;;;2.50;2.10;;;;;;;25.30;31.83;99811.17;130880;1255;107092;-80
2023/06/01 12:24:33;;;;;;;3.30;2.10;;;;;;;25.31;30.95;99819.48;130989;1256;107515;-78
2023/06/01 12:27:39;;;;;;;6.00;2.00;;;;;;;25.30;31.72;99807.68;130939;1253;107600;-79
2023/06/01 12:30:45;;;;;;;3.00;2.40;;;;;;;25.34;31.36;99806.39;130957;1256;107830;-79
2023/06/01 12:33:51;;;;;;;4.60;2.00;;;;;;;25.36;31.31;99805.98;130973;1254;107708;-79
2023/06/01 12:36:56;;;;;;;4.10;2.40;;;;;;;25.37;30.60;99802.05;130958;1255;106074;-78
2023/06/01 12:40:03;;;;;;;3.50;2.00;;;;;;;25.36;30.90;99805.05;130920;1256;107524;-80
2023/06/01 12:43:20;;;;;;;5.30;2.20;;;;;;;25.30;31.14;99795.83;131208;1256;107590;-80
2023/06/01 12:46:27;;;;;;;3.70;2.10;;;;;;;25.23;30.65;99792.87;131141;1264;108727;-79
2023/06/01 12:49:33;;;;;;;4.60;1.80;;;;;;;25.22;30.98;99795.52;130998;1264;107387;-79
2023/06/01 12:52:39;;;;;;;3.20;2.20;;;;;;;25.26;31.23;99789.73;131091;1256;107453;-79
2023/06/01 12:55:45;;;;;;;4.60;2.10;;;;;;;25.31;30.91;99790.42;131002;1256;107496;-79
2023/06/01 12:58:51;;;;;;;2.50;2.10;;;;;;;25.35;31.11;99782.98;130986;1251;107706;-79
2023/06/01 13:01:56;;;;;;;3.50;2.20;;;;;;;25.41;31.21;99779.84;130985;1264;107400;-79
2023/06/01 13:05:02;;;;;;;3.80;2.20;;;;;;;25.45;30.95;99784.95;130972;1256;107449;-79
2023/06/01 13:08:08;;;;;;;3.20;1.90;;;;;;;25.50;30.78;99778.38;130966;1255;107522;-82
2023/06/01 13:11:13;;;;;;;3.90;2.30;;;;;;;25.47;30.41;99778.46;131586;1256;107553;-80
2023/06/01 13:14:19;;;;;;;6.10;2.20;;;;;;;25.47;30.63;99780.05;131043;1256;107664;-80
2023/06/01 13:17:26;;;;;;;3.10;1.90;;;;;;;25.47;30.40;99776.88;131063;1257;107561;-80
2023/06/01 13:20:31;;;;;;;3.10;2.00;;;;;;;25.50;30.64;99772.54;131006;1256;107385;-80
2023/06/01 13:23:37;;;;;;;10.20;2.30;;;;;;;25.53;30.49;99763.69;131001;1251;106638;-79
2023/06/01 13:26:43;;;;;;;4.30;2.20;;;;;;;25.55;30.40;99761.41;131043;1256;107897;-79
2023/06/01 13:29:49;;;;;;;2.70;1.90;;;;;;;25.55;30.42;99757.59;131093;1256;107415;-79
2023/06/01 13:32:55;;;;;;;4.70;2.30;;;;;;;25.56;30.16;99759.77;131013;1256;107544;-79
2023/06/01 13:36:00;;;;;;;2.80;2.10;;;;;;;25.57;30.18;99755.67;131197;1258;107196;-80
2023/06/01 13:39:06;;;;;;;2.90;2.10;;;;;;;25.58;30.21;99759.24;131356;1251;107497;-79
2023/06/01 13:42:12;;;;;;;4.00;2.20;;;;;;;25.57;30.33;99749.95;131089;1256;108399;-80
2023/06/01 13:45:18;;;;;;;3.40;2.20;;;;;;;25.58;30.28;99748.37;131250;1256;107522;-79
2023/06/01 13:48:24;;;;;;;6.50;2.40;;;;;;;25.56;29.86;99745.79;131251;1254;107536;-79
2023/06/01 13:51:30;;;;;;;6.10;2.20;;;;;;;25.57;29.95;99750.27;131156;1257;107736;-79
2023/06/01 13:54:36;;;;;;;4.00;2.10;;;;;;;25.59;30.20;99748.77;131079;1254;106511;-79
2023/06/01 13:57:42;;;;;;;3.00;2.10;;;;;;;25.61;30.35;99746.63;131107;1257;107505;-80
2023/06/01 14:00:48;;;;;;;5.90;2.30;;;;;;;25.62;30.41;99739.65;131039;1256;107533;-79
2023/06/01 14:03:54;;;;;;;6.10;2.30;;;;;;;25.64;30.56;99736.48;131097;1256;108693;-80
2023/06/01 14:07:00;;;;;;;4.80;2.20;;;;;;;25.65;30.32;99723.16;131077;1256;107561;-79
2023/06/01 14:10:07;;;;;;;3.60;2.30;;;;;;;25.64;29.86;99726.92;131167;1255;107532;-80
2023/06/01 14:13:12;;;;;;;4.10;2.20;;;;;;;25.63;29.86;99724.02;131168;1256;108693;-79
2023/06/01 14:16:18;;;;;;;3.90;2.60;;;;;;;25.62;28.64;99727.89;131153;1256;107264;-79
2023/06/01 14:19:26;;;;;;;3.70;2.30;;;;;;;25.57;29.40;99723.02;131188;1256;108337;-79